Search for airport 
image banner adimage banner adimage banner ad
image banner ad

2PA8 - Shulls

Located in Landisburg, United States

ICAO - 2PA8, IATA -

Data provided by Airmate  

General information

Coordinates: N40°18'0" W77°17'59"
Elevation is 640 feet MSL.
Magnetic variation is -10° East
View others Airports in Pennsylvania

Operational data

Special qualification required
Current time UTC:
Current local time:
Weather at : KCXY - Capital City ( 39 km )
METAR: KCXY 182156Z 18003KT 10SM CLR 27/05 A3027 RMK AO2 SLP249 T02670050
View NOTAMs / SUP AIP / TFR affecting this airport [VIEW]
Communications frequencies: [VIEW]

Runways:

RWY identifierQFULength (ft)Width (ft)SurfaceLDA (ft)
011600100GRASS
191600100GRASS

Airport contact information

Address: Landisburg United States

Satellite view of 2PA8